createdAt,value
2018-10-01T00:00:20.135Z,6.67
2018-10-01T00:01:20.149Z,6.62
2018-10-01T00:02:20.168Z,6.69
2018-10-01T00:03:20.309Z,6.66
2018-10-01T00:04:19.786Z,6.66
2018-10-01T00:05:34.877Z,6.73
2018-10-01T00:06:20.241Z,6.73
2018-10-01T00:07:19.997Z,6.62
2018-10-01T00:08:20.014Z,6.58
2018-10-01T00:10:20.305Z,6.38
2018-10-01T00:11:34.985Z,6.49
2018-10-01T00:12:20.344Z,6.37
2018-10-01T00:13:20.355Z,6.37
2018-10-01T00:14:20.374Z,6.36
2018-10-01T00:15:20.396Z,6.46
2018-10-01T00:16:20.408Z,6.46
2018-10-01T00:17:20.424Z,6.34
2018-10-01T00:18:20.442Z,6.41
2018-10-01T00:19:20.460Z,6.38
2018-10-01T00:20:20.483Z,6.51
2018-10-01T00:21:20.499Z,6.51
2018-10-01T00:22:20.513Z,6.52
2018-10-01T00:23:20.528Z,6.41
2018-10-01T00:24:20.287Z,6.41
2018-10-01T00:26:20.581Z,6.37
2018-10-01T00:27:35.261Z,6.46
2018-10-01T00:28:20.357Z,6.56
2018-10-01T00:29:20.639Z,6.52
2018-10-01T00:30:20.394Z,6.55
2018-10-01T00:31:20.666Z,6.56
2018-10-01T00:32:20.693Z,6.38
2018-10-01T00:33:20.446Z,6.51
2018-10-01T00:34:20.725Z,6.58
2018-10-01T00:35:20.743Z,6.49
2018-10-01T00:36:20.758Z,6.52
2018-10-01T00:37:20.772Z,6.52
2018-10-01T00:38:20.894Z,6.52
2018-10-01T00:39:20.806Z,6.48
2018-10-01T00:40:20.945Z,6.44
2018-10-01T00:41:20.843Z,6.41
2018-10-01T00:42:20.616Z,6.28
2018-10-01T00:43:35.538Z,6.34
2018-10-01T00:45:20.647Z,6.49
2018-10-01T00:46:20.667Z,6.56
2018-10-01T00:47:20.942Z,6.41
2018-10-01T00:48:20.699Z,6.54
2018-10-01T00:49:20.974Z,6.51
2018-10-01T00:50:35.653Z,6.48
2018-10-01T00:51:20.751Z,6.34
2018-10-01T00:52:21.026Z,6.48
2018-10-01T00:53:21.046Z,6.44
2018-10-01T00:54:21.059Z,6.38
2018-10-01T00:55:20.821Z,6.27
2018-10-01T00:56:21.094Z,6.17
2018-10-01T00:57:20.853Z,6.15
2018-10-01T00:58:35.791Z,6.17
2018-10-01T00:59:21.146Z,6.11
2018-10-01T01:00:35.830Z,5.99
2018-10-01T01:01:21.181Z,5.97
2018-10-01T01:02:20.940Z,5.96
2018-10-01T01:03:21.213Z,5.85
2018-10-01T01:04:21.234Z,5.93
2018-10-01T01:05:21.253Z,5.83
2018-10-01T01:06:21.272Z,5.82
2018-10-01T01:07:21.286Z,5.83
2018-10-01T01:08:21.046Z,5.85
2018-10-01T01:09:21.319Z,5.79
2018-10-01T01:11:21.349Z,5.72
2018-10-01T01:13:21.391Z,5.65
2018-10-01T01:14:21.152Z,5.72
2018-10-01T01:15:21.418Z,5.72
2018-10-01T01:17:21.452Z,5.6
2018-10-01T01:18:21.468Z,5.53
2018-10-01T01:20:21.503Z,5.49
2018-10-01T01:21:21.520Z,5.48
2018-10-01T01:22:21.543Z,5.48
2018-10-01T01:23:21.560Z,5.61
2018-10-01T01:25:21.330Z,5.57
2018-10-01T01:26:21.604Z,5.58
2018-10-01T01:27:21.622Z,5.65
2018-10-01T01:28:21.381Z,5.64
2018-10-01T01:29:21.395Z,5.63
2018-10-01T01:33:21.465Z,5.65
2018-10-01T01:35:36.419Z,5.6
2018-10-01T01:36:21.517Z,5.67
2018-10-01T01:37:21.531Z,5.63
2018-10-01T01:39:21.826Z,5.43
2018-10-01T01:40:21.851Z,5.49
2018-10-01T01:41:21.855Z,5.54
2018-10-01T01:42:21.870Z,5.38
2018-10-01T01:43:21.889Z,5.45
2018-10-01T01:44:21.908Z,5.43
2018-10-01T01:45:21.408Z,5.46
2018-10-01T01:46:36.341Z,5.53
2018-10-01T01:48:21.975Z,5.49
2018-10-01T01:49:21.991Z,5.51
2018-10-01T01:50:22.008Z,5.45
2018-10-01T01:51:22.025Z,5.3
2018-10-01T01:52:21.782Z,5.33
2018-10-01T01:53:36.719Z,5.27
2018-10-01T01:54:21.814Z,5.24
2018-10-01T01:55:21.841Z,5.18
2018-10-01T01:56:22.106Z,5.18
2018-10-01T01:57:22.127Z,5.25
2018-10-01T01:58:22.143Z,5.18
2018-10-01T01:59:22.155Z,5.17
2018-10-01T02:00:21.919Z,5.18
2018-10-01T02:01:21.934Z,5.18
2018-10-01T02:04:22.243Z,5.15
2018-10-01T02:05:22.256Z,5.13
2018-10-01T02:07:22.032Z,5.03
2018-10-01T02:08:22.049Z,5.04
2018-10-01T02:09:22.320Z,5.09
2018-10-01T02:10:22.082Z,5.15
2018-10-01T02:11:22.101Z,5.02
2018-10-01T02:12:22.216Z,5.09
2018-10-01T02:13:22.390Z,5.15
2018-10-01T02:14:22.405Z,5.1
2018-10-01T02:15:22.429Z,5.21
2018-10-01T02:16:22.188Z,5.17
2018-10-01T02:17:22.196Z,5.13
2018-10-01T02:18:37.130Z,5.12
2018-10-01T02:20:22.245Z,5.17
2018-10-01T02:21:22.525Z,5.1
2018-10-01T02:22:22.536Z,5.21
2018-10-01T02:23:22.294Z,5.1
2018-10-01T02:24:22.314Z,5.13
2018-10-01T02:25:22.584Z,5.15
2018-10-01T02:26:22.605Z,5.17
2018-10-01T02:27:22.361Z,5.15
2018-10-01T02:28:22.633Z,5.18
2018-10-01T02:29:22.654Z,5.13
2018-10-01T02:30:22.675Z,5.15
2018-10-01T02:31:22.687Z,5.07
2018-10-01T02:32:22.447Z,4.88
2018-10-01T02:33:37.129Z,4.82
2018-10-01T02:34:22.734Z,4.8
2018-10-01T02:35:22.758Z,4.85
2018-10-01T02:37:22.798Z,4.88
2018-10-01T02:38:22.813Z,4.75
2018-10-01T02:39:22.560Z,4.75
2018-10-01T02:40:22.834Z,4.86
2018-10-01T02:41:22.858Z,4.77
2018-10-01T02:42:37.538Z,4.82
2018-10-01T02:43:22.635Z,4.75
2018-10-01T02:44:22.899Z,4.77
2018-10-01T02:45:22.917Z,4.77
2018-10-01T02:46:22.936Z,4.84
2018-10-01T02:47:22.947Z,4.77
2018-10-01T02:48:22.979Z,4.84
2018-10-01T02:49:22.985Z,4.86
2018-10-01T02:50:23.000Z,4.97
2018-10-01T02:51:22.759Z,5
2018-10-01T02:52:22.515Z,5.12
2018-10-01T02:53:23.048Z,4.92
2018-10-01T02:54:23.067Z,4.92
2018-10-01T02:55:23.080Z,4.94
2018-10-01T02:56:23.104Z,4.96
2018-10-01T02:57:23.121Z,5.02
2018-10-01T02:58:23.138Z,5.02
2018-10-01T02:59:23.144Z,5.03
2018-10-01T03:00:23.169Z,5.1
2018-10-01T03:01:22.934Z,5.09
2018-10-01T03:02:23.193Z,5.09
2018-10-01T03:03:23.216Z,5.12
2018-10-01T03:04:23.232Z,5.07
2018-10-01T03:06:23.267Z,5.07
2018-10-01T03:07:23.279Z,5.06
2018-10-01T03:08:23.030Z,5.04
2018-10-01T03:09:23.318Z,5.12
2018-10-01T03:10:23.327Z,5.09
2018-10-01T03:12:23.765Z,5.13
2018-10-01T03:13:38.043Z,5.15
2018-10-01T03:14:23.390Z,5.21
2018-10-01T03:15:38.066Z,5.13
2018-10-01T03:16:23.170Z,5.15
2018-10-01T03:17:23.440Z,5.42
2018-10-01T03:18:23.460Z,5.53
2018-10-01T03:19:23.231Z,5.42
2018-10-01T03:20:23.229Z,5.38
2018-10-01T03:21:38.167Z,5.4
2018-10-01T03:22:23.519Z,5.48
2018-10-01T03:23:23.548Z,5.35
2018-10-01T03:25:23.574Z,5.43
2018-10-01T03:26:23.591Z,5.51
2018-10-01T03:27:23.656Z,5.49
2018-10-01T03:28:23.623Z,5.63
2018-10-01T03:29:38.293Z,5.57
2018-10-01T03:30:23.666Z,5.65
2018-10-01T03:31:23.414Z,5.53
2018-10-01T03:32:23.688Z,5.57
2018-10-01T03:33:23.708Z,5.56
2018-10-01T03:34:23.721Z,5.54
2018-10-01T03:35:23.745Z,5.6
2018-10-01T03:37:38.424Z,5.56
2018-10-01T03:38:23.782Z,5.53
2018-10-01T03:39:23.805Z,5.51
2018-10-01T03:40:24.016Z,5.42
2018-10-01T03:41:23.580Z,5.53
2018-10-01T03:42:23.848Z,5.38
2018-10-01T03:43:23.878Z,5.48
2018-10-01T03:44:23.640Z,5.35
2018-10-01T03:45:23.906Z,5.39
2018-10-01T03:46:38.570Z,5.48
2018-10-01T03:47:23.930Z,5.43
2018-10-01T03:48:23.943Z,5.33
2018-10-01T03:49:23.963Z,5.42
2018-10-01T03:50:23.983Z,5.33
2018-10-01T03:51:23.998Z,5.27
2018-10-01T03:52:24.010Z,5.4
2018-10-01T03:53:38.686Z,5.38
2018-10-01T03:54:24.046Z,5.46
2018-10-01T03:55:24.062Z,5.36
2018-10-01T03:56:24.080Z,5.4
2018-10-01T03:57:24.092Z,5.53
2018-10-01T03:58:24.114Z,5.58
2018-10-01T03:59:23.865Z,5.58
2018-10-01T04:00:24.143Z,5.56
2018-10-01T04:01:23.643Z,5.68
2018-10-01T04:02:23.914Z,5.74
2018-10-01T04:03:24.196Z,5.71
2018-10-01T04:04:24.217Z,5.81
2018-10-01T04:05:24.221Z,5.64
2018-10-01T04:06:24.254Z,5.76
2018-10-01T04:07:24.255Z,5.68
2018-10-01T04:08:39.033Z,5.74
2018-10-01T04:09:24.300Z,5.67
2018-10-01T04:10:24.309Z,5.68
2018-10-01T04:12:24.352Z,5.75
2018-10-01T04:13:24.199Z,5.72
2018-10-01T04:14:24.399Z,5.64
2018-10-01T04:15:24.387Z,5.74
2018-10-01T04:16:24.402Z,5.86
2018-10-01T04:17:24.467Z,5.81
2018-10-01T04:18:39.196Z,5.78
2018-10-01T04:19:24.460Z,5.74
2018-10-01T04:20:24.211Z,5.79
2018-10-01T04:21:24.487Z,5.86
2018-10-01T04:22:24.501Z,5.89
2018-10-01T04:23:24.522Z,5.9
2018-10-01T04:24:24.541Z,5.93
2018-10-01T04:25:24.293Z,5.97
2018-10-01T04:26:24.308Z,5.96
2018-10-01T04:27:24.331Z,5.86
2018-10-01T04:28:25.043Z,5.83
2018-10-01T04:29:24.614Z,5.83
2018-10-01T04:30:39.294Z,5.82
2018-10-01T04:31:24.645Z,5.78
2018-10-01T04:32:24.666Z,5.85
2018-10-01T04:33:39.341Z,5.81
2018-10-01T04:34:24.698Z,5.79
2018-10-01T04:35:24.720Z,5.81
2018-10-01T04:36:24.726Z,5.89
2018-10-01T04:37:24.489Z,5.78
2018-10-01T04:38:24.506Z,5.82
2018-10-01T04:39:24.522Z,5.82
2018-10-01T04:41:24.811Z,5.79
2018-10-01T04:42:39.493Z,5.63
2018-10-01T04:43:39.509Z,5.65
2018-10-01T04:44:24.860Z,5.72
2018-10-01T04:45:24.882Z,5.65
2018-10-01T04:46:24.638Z,5.71
2018-10-01T04:47:24.911Z,5.74
2018-10-01T04:48:24.927Z,5.65
2018-10-01T04:49:24.944Z,5.61
2018-10-01T04:50:24.702Z,5.57
2018-10-01T04:51:24.980Z,5.58
2018-10-01T04:52:24.991Z,5.6
2018-10-01T04:53:39.680Z,5.53
2018-10-01T04:54:24.766Z,5.53
2018-10-01T04:55:25.052Z,5.61
2018-10-01T04:56:39.715Z,5.61
2018-10-01T04:58:25.863Z,5.76
2018-10-01T04:59:25.108Z,5.81
2018-10-01T05:00:25.127Z,5.81
2018-10-01T05:01:25.138Z,5.89
2018-10-01T05:02:25.158Z,5.89
2018-10-01T05:03:25.173Z,5.85
2018-10-01T05:04:25.031Z,5.85
2018-10-01T05:05:39.865Z,5.83
2018-10-01T05:06:39.624Z,5.94
2018-10-01T05:07:39.896Z,6
2018-10-01T05:08:25.254Z,5.96
2018-10-01T05:10:25.033Z,6.03
2018-10-01T05:12:39.985Z,6.17
2018-10-01T05:13:25.336Z,6.17
2018-10-01T05:14:25.356Z,6.09
2018-10-01T05:15:25.368Z,6.12
2018-10-01T05:16:25.388Z,6.12
2018-10-01T05:17:25.403Z,6.14
2018-10-01T05:18:25.160Z,6.11
2018-10-01T05:19:25.197Z,6.28
2018-10-01T05:20:40.112Z,6.09
2018-10-01T05:21:25.310Z,6.28
2018-10-01T05:22:25.490Z,6.18
2018-10-01T05:23:40.159Z,6.31
2018-10-01T05:24:25.517Z,6.3
2018-10-01T05:25:25.535Z,6.48
2018-10-01T05:26:25.576Z,6.52
2018-10-01T05:27:25.312Z,6.52
2018-10-01T05:28:40.241Z,6.56
2018-10-01T05:29:25.601Z,6.66
2018-10-01T05:30:25.620Z,6.61
2018-10-01T05:32:25.652Z,6.62
2018-10-01T05:33:25.668Z,6.62
2018-10-01T05:34:25.680Z,6.58
2018-10-01T05:35:25.700Z,6.69
2018-10-01T05:36:25.717Z,6.74
2018-10-01T05:37:25.738Z,6.73
2018-10-01T05:38:25.493Z,6.76
2018-10-01T05:39:25.767Z,6.71
2018-10-01T05:40:25.785Z,6.71
2018-10-01T05:41:25.803Z,6.85
2018-10-01T05:42:25.819Z,6.84
2018-10-01T05:43:40.236Z,6.79
2018-10-01T05:44:25.852Z,6.8
2018-10-01T05:45:25.867Z,6.92
2018-10-01T05:47:25.643Z,6.8
2018-10-01T05:48:25.925Z,6.89
2018-10-01T05:49:25.946Z,6.89
2018-10-01T05:50:25.958Z,6.97
2018-10-01T05:51:25.823Z,6.94
2018-10-01T05:52:26.170Z,6.94
2018-10-01T05:53:40.408Z,6.91
2018-10-01T05:54:26.045Z,7.03
2018-10-01T05:55:25.524Z,6.97
2018-10-01T05:56:26.061Z,7.12
2018-10-01T05:57:26.073Z,7.27
2018-10-01T05:58:25.835Z,7.32
2018-10-01T05:59:26.111Z,7.53
2018-10-01T06:01:25.890Z,7.69
2018-10-01T06:02:26.166Z,7.85
2018-10-01T06:04:26.204Z,8.05
2018-10-01T06:05:25.971Z,8.18
2018-10-01T06:06:26.243Z,8.28
2018-10-01T06:07:26.011Z,8.36
2018-10-01T06:08:40.947Z,8.52
2018-10-01T06:09:26.307Z,8.61
2018-10-01T06:10:26.328Z,8.74
2018-10-01T06:11:26.095Z,8.83
2018-10-01T06:12:26.371Z,8.98
2018-10-01T06:13:26.142Z,8.95
2018-10-01T06:14:26.418Z,9.11
2018-10-01T06:15:41.097Z,9.31
2018-10-01T06:16:26.460Z,9.33
2018-10-01T06:17:26.222Z,9.5
2018-10-01T06:18:26.259Z,9.56
2018-10-01T06:19:26.273Z,9.6
2018-10-01T06:20:26.558Z,9.69
2018-10-01T06:21:26.577Z,9.84
2018-10-01T06:22:26.601Z,10.12
2018-10-01T06:23:26.623Z,10.14
2018-10-01T06:24:41.304Z,10.25
2018-10-01T06:25:26.678Z,10.2
2018-10-01T06:26:26.691Z,10.41
2018-10-01T06:27:26.721Z,10.38
2018-10-01T06:28:26.220Z,10.66
2018-10-01T06:29:26.763Z,10.85
2018-10-01T06:30:26.787Z,10.91
2018-10-01T06:31:41.472Z,10.89
2018-10-01T06:33:26.857Z,11.07
2018-10-01T06:34:26.879Z,11.32
2018-10-01T06:35:26.920Z,11.25
2018-10-01T06:36:27.123Z,11.47
2018-10-01T06:37:27.054Z,11.46
2018-10-01T06:38:26.982Z,11.49
2018-10-01T06:39:27.072Z,11.57
2018-10-01T06:40:27.036Z,11.57
2018-10-01T06:41:26.841Z,11.7
2018-10-01T06:42:26.822Z,11.6
2018-10-01T06:43:26.846Z,11.65
2018-10-01T06:44:27.126Z,11.64
2018-10-01T06:45:27.154Z,11.8
2018-10-01T06:46:27.182Z,11.91
2018-10-01T06:47:41.867Z,11.8
2018-10-01T06:49:27.253Z,11.9
2018-10-01T06:50:27.279Z,11.72
2018-10-01T06:51:27.388Z,11.76
2018-10-01T06:52:27.325Z,11.72
2018-10-01T06:53:27.352Z,11.72
2018-10-01T06:54:27.119Z,11.86
2018-10-01T06:55:42.061Z,11.64
2018-10-01T06:56:27.165Z,11.52
2018-10-01T06:57:27.450Z,11.57
2018-10-01T06:58:27.471Z,11.6
2018-10-01T06:59:27.494Z,11.62
2018-10-01T07:00:27.529Z,11.57
2018-10-01T07:01:27.723Z,11.6
2018-10-01T07:02:27.566Z,11.55
2018-10-01T07:04:27.609Z,11.78
2018-10-01T07:05:27.935Z,11.83
2018-10-01T07:06:27.662Z,11.96
2018-10-01T07:07:27.689Z,12.04
2018-10-01T07:08:27.465Z,12.21
2018-10-01T07:10:27.491Z,12.34
2018-10-01T07:11:28.309Z,12.5
2018-10-01T07:12:42.458Z,12.68
2018-10-01T07:13:27.819Z,12.75
2018-10-01T07:14:27.851Z,12.78
2018-10-01T07:15:27.621Z,13.03
2018-10-01T07:16:28.192Z,13.19
2018-10-01T07:17:28.642Z,13.46
2018-10-01T07:18:42.600Z,13.59
2018-10-01T07:19:27.725Z,13.6
2018-10-01T07:20:27.742Z,13.84
2018-10-01T07:22:28.166Z,14.29
2018-10-01T07:23:29.030Z,14.45
2018-10-01T07:24:27.849Z,14.61
2018-10-01T07:25:28.105Z,14.7
2018-10-01T07:26:28.130Z,14.7
2018-10-01T07:27:27.641Z,14.81
2018-10-01T07:28:27.927Z,14.84
2018-10-01T07:29:28.217Z,14.8
2018-10-01T07:30:28.235Z,14.91
2018-10-01T07:31:27.997Z,15.07
2018-10-01T07:32:28.282Z,15.14
2018-10-01T07:33:28.315Z,15.31
2018-10-01T07:34:28.073Z,15.35
2018-10-01T07:35:27.839Z,15.28
2018-10-01T07:36:28.382Z,15.41
2018-10-01T07:37:28.408Z,15.51
2018-10-01T07:38:28.171Z,15.49
2018-10-01T07:39:28.459Z,15.69
2018-10-01T07:40:28.477Z,15.86
2018-10-01T07:41:28.525Z,16.01
2018-10-01T07:42:28.531Z,15.86
2018-10-01T07:43:28.297Z,16.01
2018-10-01T07:44:28.580Z,16.11
2018-10-01T07:45:43.596Z,15.93
2018-10-01T07:46:28.776Z,15.93
2018-10-01T07:47:28.401Z,16
2018-10-01T07:48:28.434Z,16.05
2018-10-01T07:49:28.186Z,16.3
2018-10-01T07:50:43.572Z,16.14
2018-10-01T07:51:28.489Z,15.9
2018-10-01T07:52:28.515Z,15.83
2018-10-01T07:53:29.014Z,15.68
2018-10-01T07:54:28.581Z,15.62
2018-10-01T07:55:28.847Z,15.65
2018-10-01T07:56:28.875Z,15.59
2018-10-01T07:57:29.117Z,15.44
2018-10-01T07:58:43.579Z,15.31
2018-10-01T07:59:28.487Z,15.28
2018-10-01T08:00:29.236Z,15.2
2018-10-01T08:01:28.991Z,15.14
2018-10-01T08:02:29.159Z,15.2
2018-10-01T08:03:29.039Z,15.02
2018-10-01T08:04:28.801Z,14.92
2018-10-01T08:06:43.768Z,14.83
2018-10-01T08:07:29.137Z,14.86
2018-10-01T08:08:28.715Z,14.78
2018-10-01T08:09:29.109Z,14.77
2018-10-01T08:11:28.965Z,14.92
2018-10-01T08:12:29.247Z,14.92
2018-10-01T08:13:29.017Z,14.92
2018-10-01T08:14:29.096Z,15.02
2018-10-01T08:15:43.991Z,14.88
2018-10-01T08:16:29.339Z,14.81
2018-10-01T08:17:29.362Z,14.61
2018-10-01T08:18:29.388Z,14.77
2018-10-01T08:19:29.407Z,14.78
2018-10-01T08:20:29.530Z,14.69
2018-10-01T08:21:29.454Z,14.64
2018-10-01T08:22:44.136Z,14.65
2018-10-01T08:23:29.673Z,14.62
2018-10-01T08:24:29.271Z,14.62
2018-10-01T08:25:29.551Z,14.61
2018-10-01T08:26:29.773Z,14.58
2018-10-01T08:27:29.592Z,14.65
2018-10-01T08:28:29.621Z,14.64
2018-10-01T08:29:29.839Z,14.45
2018-10-01T08:30:29.677Z,14.52
2018-10-01T08:31:29.685Z,14.51
2018-10-01T08:32:29.843Z,14.58
2018-10-01T08:33:44.129Z,14.5
2018-10-01T08:34:29.751Z,14.5
2018-10-01T08:35:29.978Z,14.4
2018-10-01T08:36:29.794Z,14.52
2018-10-01T08:37:29.817Z,14.52
2018-10-01T08:38:44.712Z,14.61
2018-10-01T08:39:29.862Z,14.58
2018-10-01T08:40:29.629Z,14.57
2018-10-01T08:42:29.674Z,14.84
2018-10-01T08:43:29.952Z,14.89
2018-10-01T08:44:29.478Z,14.91
2018-10-01T08:45:29.744Z,15.02
2018-10-01T08:46:44.682Z,15.27
2018-10-01T08:47:29.821Z,15.28
2018-10-01T08:48:44.726Z,15.54
2018-10-01T08:49:30.088Z,15.69
2018-10-01T08:50:30.317Z,15.86
2018-10-01T08:51:29.887Z,15.86
2018-10-01T08:52:29.901Z,16.04
2018-10-01T08:53:44.847Z,16.12
2018-10-01T08:54:30.204Z,16.28
2018-10-01T08:55:30.237Z,16.42
2018-10-01T08:56:30.453Z,16.33
2018-10-01T08:57:30.019Z,16.43
2018-10-01T08:58:30.050Z,16.24
2018-10-01T08:59:30.574Z,16.21
2018-10-01T09:00:29.831Z,16.23
2018-10-01T09:01:45.032Z,16.27
2018-10-01T09:02:30.229Z,16.42
2018-10-01T09:03:45.080Z,16.35
2018-10-01T09:04:30.441Z,16.42
2018-10-01T09:05:30.348Z,16.27
2018-10-01T09:06:30.489Z,16.27
2018-10-01T09:07:30.257Z,16.31
2018-10-01T09:08:30.436Z,16.3
2018-10-01T09:09:30.566Z,16.15
2018-10-01T09:10:30.587Z,16.2
2018-10-01T09:11:30.844Z,16.21
2018-10-01T09:12:45.296Z,16.09
2018-10-01T09:14:45.497Z,15.87
2018-10-01T09:15:30.450Z,15.97
2018-10-01T09:16:30.728Z,15.89
2018-10-01T09:17:31.012Z,15.9
2018-10-01T09:18:45.430Z,16
2018-10-01T09:19:30.280Z,16.07
2018-10-01T09:20:30.345Z,15.97
2018-10-01T09:21:31.323Z,16.09
2018-10-01T09:22:30.606Z,15.87
2018-10-01T09:23:30.745Z,16.01
2018-10-01T09:24:30.650Z,15.94
2018-10-01T09:25:45.601Z,16.08
2018-10-01T09:26:31.185Z,16.08
2018-10-01T09:27:30.721Z,16.25
2018-10-01T09:28:31.003Z,16.25
2018-10-01T09:29:45.741Z,16.12
2018-10-01T09:30:31.061Z,16.09
2018-10-01T09:31:31.077Z,16.28
2018-10-01T09:32:45.502Z,16.21
2018-10-01T09:33:45.783Z,16.14
2018-10-01T09:34:30.886Z,16.17
2018-10-01T09:35:31.353Z,16.28
2018-10-01T09:36:30.934Z,16.34
2018-10-01T09:37:30.958Z,16.39
2018-10-01T09:38:31.413Z,16.45
2018-10-01T09:39:31.003Z,16.46
2018-10-01T09:40:31.428Z,16.58
2018-10-01T09:41:45.968Z,16.79
2018-10-01T09:42:31.074Z,16.91
2018-10-01T09:43:31.365Z,17.04
2018-10-01T09:44:30.967Z,17.19
2018-10-01T09:45:31.145Z,17.3
2018-10-01T09:47:31.449Z,17.43
2018-10-01T09:48:31.479Z,17.41
2018-10-01T09:49:31.500Z,17.41
2018-10-01T09:50:31.608Z,17.4
2018-10-01T09:53:31.362Z,17.52
2018-10-01T09:54:31.098Z,17.28
2018-10-01T09:55:31.639Z,17.22
2018-10-01T09:56:31.896Z,17.22
2018-10-01T09:57:46.495Z,17.14
2018-10-01T09:58:31.889Z,17.15
2018-10-01T09:59:31.743Z,17.33
2018-10-01T10:00:31.758Z,17.18
2018-10-01T10:02:32.045Z,16.96
2018-10-01T10:03:31.570Z,16.98
2018-10-01T10:04:31.902Z,17.06
2018-10-01T10:05:31.878Z,17.16
2018-10-01T10:06:31.903Z,17.26
2018-10-01T10:07:46.324Z,17.26
2018-10-01T10:08:32.345Z,17.44
2018-10-01T10:09:31.967Z,17.56
2018-10-01T10:10:32.166Z,17.54
2018-10-01T10:12:32.042Z,17.92
2018-10-01T10:13:46.725Z,18.12
2018-10-01T10:14:32.064Z,18.27
2018-10-01T10:15:31.856Z,18.41
2018-10-01T10:16:32.071Z,18.5
2018-10-01T10:17:32.269Z,18.5
2018-10-01T10:18:31.925Z,18.47
2018-10-01T10:19:32.209Z,18.36
2018-10-01T10:20:32.163Z,18.42
2018-10-01T10:21:31.742Z,18.35
2018-10-01T10:22:32.471Z,18.25
2018-10-01T10:23:46.976Z,18.33
2018-10-01T10:24:32.323Z,18.41
2018-10-01T10:25:32.351Z,18.32
2018-10-01T10:26:32.235Z,18.55
2018-10-01T10:27:32.405Z,18.51
2018-10-01T10:29:47.118Z,18.23
2018-10-01T10:30:32.469Z,18.37
2018-10-01T10:31:32.235Z,18.12
2018-10-01T10:33:32.545Z,17.41
2018-10-01T10:34:32.818Z,17.44
2018-10-01T10:35:32.919Z,17.58
2018-10-01T10:36:32.353Z,17.34
2018-10-01T10:37:32.379Z,17.21
2018-10-01T10:39:32.195Z,17.38
2018-10-01T10:40:32.706Z,17.56
2018-10-01T10:41:32.503Z,17.28
2018-10-01T10:42:32.753Z,17.3
2018-10-01T10:43:32.520Z,17.4
2018-10-01T10:44:32.989Z,17.26
2018-10-01T10:45:32.564Z,17.31
2018-10-01T10:46:32.845Z,17.3
2018-10-01T10:47:32.871Z,17.3
2018-10-01T10:48:32.895Z,17.23
2018-10-01T10:50:33.096Z,17.43
2018-10-01T10:51:32.967Z,17.36
2018-10-01T10:52:32.986Z,17.54
2018-10-01T10:53:32.753Z,17.3
2018-10-01T10:54:33.038Z,17.51
2018-10-01T10:55:33.059Z,17.54
2018-10-01T10:56:32.929Z,17.54
2018-10-01T10:57:33.111Z,17.54
2018-10-01T10:58:32.870Z,17.54
2018-10-01T10:59:33.151Z,17.48
2018-10-01T11:00:47.875Z,17.56
2018-10-01T11:01:32.945Z,17.66
2018-10-01T11:02:33.220Z,17.56
2018-10-01T11:03:32.985Z,17.43
2018-10-01T11:04:33.268Z,17.59
2018-10-01T11:05:33.296Z,17.54
2018-10-01T11:06:32.800Z,17.51
2018-10-01T11:07:33.344Z,17.54
2018-10-01T11:08:33.558Z,17.68
2018-10-01T11:09:33.133Z,17.81
2018-10-01T11:10:48.070Z,17.95
2018-10-01T11:11:33.173Z,18.02
2018-10-01T11:12:32.942Z,17.95
2018-10-01T11:13:33.478Z,17.97
2018-10-01T11:14:33.732Z,17.95
2018-10-01T11:15:33.826Z,17.79
2018-10-01T11:16:48.215Z,17.89
2018-10-01T11:17:33.790Z,18
2018-10-01T11:18:34.032Z,18.1
2018-10-01T11:19:33.434Z,18.02
2018-10-01T11:21:33.612Z,18.23
2018-10-01T11:22:33.434Z,18.18
2018-10-01T11:23:33.814Z,18.11
2018-10-01T11:24:33.740Z,18.1
2018-10-01T11:25:34.320Z,17.89
2018-10-01T11:26:33.533Z,17.84
2018-10-01T11:27:33.980Z,17.62
2018-10-01T11:28:33.847Z,17.7
2018-10-01T11:29:33.858Z,17.72
2018-10-01T11:30:33.722Z,17.82
2018-10-01T11:31:33.847Z,17.81
2018-10-01T11:32:48.326Z,17.77
2018-10-01T11:33:34.120Z,17.9
2018-10-01T11:34:34.339Z,17.82
2018-10-01T11:35:34.184Z,17.82
2018-10-01T11:36:33.759Z,17.82
2018-10-01T11:37:48.714Z,18.03
2018-10-01T11:38:33.837Z,17.92
2018-10-01T11:39:33.885Z,17.86
2018-10-01T11:40:33.853Z,17.84
2018-10-01T11:41:34.135Z,17.87
2018-10-01T11:42:34.156Z,17.86
2018-10-01T11:43:34.187Z,17.87
2018-10-01T11:44:34.303Z,17.75
2018-10-01T11:45:34.412Z,17.64
2018-10-01T11:46:34.248Z,17.58
2018-10-01T11:47:34.271Z,17.46
2018-10-01T11:48:49.162Z,17.52
2018-10-01T11:49:34.323Z,17.59
2018-10-01T11:50:34.348Z,17.4
2018-10-01T11:51:34.263Z,17.19
2018-10-01T11:52:34.398Z,17.16
2018-10-01T11:53:34.211Z,17.01
2018-10-01T11:54:34.652Z,16.81
2018-10-01T11:55:34.469Z,16.85
2018-10-01T11:56:34.479Z,16.64
2018-10-01T11:57:34.719Z,16.42
2018-10-01T11:58:34.275Z,16.43
2018-10-01T11:59:34.296Z,16.09
2018-10-01T12:00:34.578Z,16.05
2018-10-01T12:01:34.598Z,15.92
2018-10-01T12:02:34.620Z,15.96
2018-10-01T12:03:49.084Z,15.84
2018-10-01T12:04:34.670Z,15.9
2018-10-01T12:05:34.687Z,16.02
2018-10-01T12:06:34.710Z,16.17
2018-10-01T12:07:34.732Z,16.2
2018-10-01T12:08:34.761Z,16.21
2018-10-01T12:09:35.089Z,16.15
2018-10-01T12:10:35.076Z,16.27
2018-10-01T12:11:34.825Z,16.3
2018-10-01T12:12:34.849Z,16.38
2018-10-01T12:13:34.876Z,16.48
2018-10-01T12:14:34.892Z,16.49
2018-10-01T12:15:35.357Z,16.42
2018-10-01T12:16:34.946Z,16.56
2018-10-01T12:17:34.714Z,16.5
2018-10-01T12:18:34.997Z,16.49
2018-10-01T12:20:34.778Z,16.46
2018-10-01T12:21:34.920Z,16.42
2018-10-01T12:22:35.081Z,16.42
2018-10-01T12:23:35.125Z,16.56
2018-10-01T12:24:34.860Z,16.56
2018-10-01T12:25:35.140Z,16.5
2018-10-01T12:26:35.173Z,16.57
2018-10-01T12:27:35.119Z,16.49
2018-10-01T12:28:35.213Z,16.43
2018-10-01T12:29:34.973Z,16.33
2018-10-01T12:30:34.999Z,16.21
2018-10-01T12:31:49.686Z,16.23
2018-10-01T12:32:35.313Z,16.2
2018-10-01T12:33:35.209Z,16.09
2018-10-01T12:34:35.349Z,16.24
2018-10-01T12:35:50.032Z,16.11
2018-10-01T12:36:35.395Z,15.83
2018-10-01T12:37:35.413Z,15.83
2018-10-01T12:38:35.443Z,15.87
2018-10-01T12:39:35.380Z,15.86
2018-10-01T12:40:35.484Z,15.87
2018-10-01T12:41:35.505Z,15.67
2018-10-01T12:42:35.561Z,15.74
2018-10-01T12:44:35.576Z,15.8
2018-10-01T12:45:35.396Z,15.86
2018-10-01T12:46:35.615Z,15.86
2018-10-01T12:47:35.650Z,15.83
2018-10-01T12:48:35.660Z,15.92
2018-10-01T12:49:35.693Z,15.83
2018-10-01T12:50:36.125Z,15.87
2018-10-01T12:51:50.557Z,15.71
2018-10-01T12:53:35.773Z,15.65
2018-10-01T12:54:35.536Z,15.82
2018-10-01T12:55:35.834Z,15.87
2018-10-01T12:56:35.323Z,15.68
2018-10-01T12:57:36.144Z,15.62
2018-10-01T12:58:35.885Z,15.72
2018-10-01T12:59:35.398Z,15.74
2018-10-01T13:00:35.939Z,15.68
2018-10-01T13:01:35.978Z,15.69
2018-10-01T13:02:35.716Z,15.67
2018-10-01T13:03:35.747Z,15.59
2018-10-01T13:04:36.204Z,15.5
2018-10-01T13:05:36.053Z,15.59
2018-10-01T13:06:36.240Z,15.49
2018-10-01T13:07:50.958Z,15.46
2018-10-01T13:08:36.127Z,15.46
2018-10-01T13:09:35.874Z,15.65
2018-10-01T13:10:36.220Z,15.34
2018-10-01T13:11:36.178Z,15.38
2018-10-01T13:12:36.443Z,15.54
2018-10-01T13:13:50.884Z,15.76
2018-10-01T13:14:36.256Z,15.67
2018-10-01T13:15:36.462Z,15.93
2018-10-01T13:16:36.493Z,16.01
2018-10-01T13:17:36.320Z,16.04
2018-10-01T13:18:36.637Z,16.08
2018-10-01T13:19:36.101Z,15.97
2018-10-01T13:20:36.378Z,16.11
2018-10-01T13:22:36.428Z,15.9
2018-10-01T13:23:51.109Z,15.97
2018-10-01T13:24:36.509Z,15.96
2018-10-01T13:25:36.332Z,16.09
2018-10-01T13:27:37.051Z,16.27
2018-10-01T13:28:36.310Z,16.21
2018-10-01T13:29:36.325Z,16.25
2018-10-01T13:30:51.280Z,16.08
2018-10-01T13:31:36.105Z,16.15
2018-10-01T13:32:36.659Z,16.34
2018-10-01T13:33:36.675Z,16.49
2018-10-01T13:34:36.696Z,16.53
2018-10-01T13:35:36.727Z,16.6
2018-10-01T13:36:37.067Z,16.49
2018-10-01T13:37:36.768Z,16.53
2018-10-01T13:38:51.445Z,16.42
2018-10-01T13:39:36.820Z,16.5
2018-10-01T13:40:36.842Z,16.5
2018-10-01T13:41:36.865Z,16.5
2018-10-01T13:42:37.080Z,16.49
2018-10-01T13:43:36.917Z,16.41
2018-10-01T13:45:36.690Z,16.33
2018-10-01T13:46:36.971Z,16.38
2018-10-01T13:47:37.045Z,16.43
2018-10-01T13:48:37.267Z,16.33
2018-10-01T13:49:37.299Z,16.38
2018-10-01T13:50:37.275Z,16.45
2018-10-01T13:51:37.079Z,16.23
2018-10-01T13:54:37.547Z,16.41
2018-10-01T13:55:37.173Z,16.46
2018-10-01T13:56:37.195Z,16.38
2018-10-01T13:58:37.250Z,16.56
2018-10-01T14:00:37.309Z,16.7
2018-10-01T14:01:37.856Z,16.67
2018-10-01T14:02:37.339Z,16.66
2018-10-01T14:03:37.354Z,16.64
2018-10-01T14:04:37.376Z,16.43
2018-10-01T14:05:52.063Z,16.41
2018-10-01T14:06:37.426Z,16.42
2018-10-01T14:07:37.445Z,16.48